sensor_id;sensor_type;location;lat;lon;timestamp;pressure;altitude;pressure_sealevel;temperature;humidity
33422;BME280;19763;55.798;37.782;2023-05-19T00:01:06;151594.78;;;17.16;78.82
33422;BME280;19763;55.798;37.782;2023-05-19T00:03:36;151587.06;;;17.13;78.33
33422;BME280;19763;55.798;37.782;2023-05-19T00:06:05;151616.72;;;17.24;78.29
33422;BME280;19763;55.798;37.782;2023-05-19T00:08:33;151593.50;;;17.15;78.01
33422;BME280;19763;55.798;37.782;2023-05-19T00:11:00;151620.59;;;17.26;77.68
33422;BME280;19763;55.798;37.782;2023-05-19T00:13:26;151610.28;;;17.22;76.45
33422;BME280;19763;55.798;37.782;2023-05-19T00:15:53;151610.28;;;17.22;76.25
33422;BME280;19763;55.798;37.782;2023-05-19T00:18:19;151625.72;;;17.28;75.56
33422;BME280;19763;55.798;37.782;2023-05-19T00:20:44;151633.44;;;17.31;75.63
33422;BME280;19763;55.798;37.782;2023-05-19T00:23:10;151611.53;;;17.22;76.13
33422;BME280;19763;55.798;37.782;2023-05-19T00:25:36;151608.97;;;17.21;75.63
33422;BME280;19763;55.798;37.782;2023-05-19T00:28:02;151597.38;;;17.17;76.09
33422;BME280;19763;55.798;37.782;2023-05-19T00:30:28;151584.50;;;17.12;76.35
33422;BME280;19763;55.798;37.782;2023-05-19T00:32:54;151566.44;;;17.04;76.19
33422;BME280;19763;55.798;37.782;2023-05-19T00:35:20;151566.44;;;17.04;75.94
33422;BME280;19763;55.798;37.782;2023-05-19T00:37:46;151566.44;;;17.04;75.56
33422;BME280;19763;55.798;37.782;2023-05-19T00:40:11;151513.59;;;16.83;75.42
33422;BME280;19763;55.798;37.782;2023-05-19T00:42:38;151504.53;;;16.80;75.82
33422;BME280;19763;55.798;37.782;2023-05-19T00:45:04;151505.88;;;16.80;75.57
33422;BME280;19763;55.798;37.782;2023-05-19T00:47:30;151504.53;;;16.80;75.44
33422;BME280;19763;55.798;37.782;2023-05-19T00:49:56;151480.06;;;16.70;76.25
33422;BME280;19763;55.798;37.782;2023-05-19T00:52:22;151501.97;;;16.79;75.64
33422;BME280;19763;55.798;37.782;2023-05-19T00:54:48;151507.13;;;16.81;75.60
33422;BME280;19763;55.798;37.782;2023-05-19T00:57:15;151518.72;;;16.85;75.63
33422;BME280;19763;55.798;37.782;2023-05-19T00:59:41;151513.59;;;16.83;75.36
33422;BME280;19763;55.798;37.782;2023-05-19T01:02:07;151481.38;;;16.70;75.74
33422;BME280;19763;55.798;37.782;2023-05-19T01:04:35;151450.44;;;16.58;75.67
33422;BME280;19763;55.798;37.782;2023-05-19T01:07:02;151455.56;;;16.60;75.68
33422;BME280;19763;55.798;37.782;2023-05-19T01:09:27;151440.13;;;16.54;75.50
33422;BME280;19763;55.798;37.782;2023-05-19T01:11:54;151395.03;;;16.36;75.36
33422;BME280;19763;55.798;37.782;2023-05-19T01:14:21;151331.97;;;16.11;76.01
33422;BME280;19763;55.798;37.782;2023-05-19T01:17:00;151307.50;;;16.01;76.01
33422;BME280;19763;55.798;37.782;2023-05-19T01:33:00;151297.19;;;15.97;77.48
33422;BME280;19763;55.798;37.782;2023-05-19T01:35:26;151312.63;;;16.03;77.50
33422;BME280;19763;55.798;37.782;2023-05-19T01:37:55;151308.78;;;16.01;77.32
33422;BME280;19763;55.798;37.782;2023-05-19T01:40:22;151301.06;;;15.98;76.84
33422;BME280;19763;55.798;37.782;2023-05-19T01:42:50;151312.63;;;16.03;76.51
33422;BME280;19763;55.798;37.782;2023-05-19T01:45:17;151275.31;;;15.88;77.28
33422;BME280;19763;55.798;37.782;2023-05-19T01:47:47;151267.59;;;15.85;76.88
33422;BME280;19763;55.798;37.782;2023-05-19T01:50:14;151226.31;;;15.68;76.69
33422;BME280;19763;55.798;37.782;2023-05-19T01:52:39;151207.03;;;15.61;77.33
33422;BME280;19763;55.798;37.782;2023-05-19T01:55:05;151165.81;;;15.44;78.70
33422;BME280;19763;55.798;37.782;2023-05-19T02:06:40;151047.44;;;14.97;75.92
33422;BME280;19763;55.798;37.782;2023-05-19T02:10:13;151060.28;;;15.02;75.90
33422;BME280;19763;55.798;37.782;2023-05-19T02:12:24;151006.25;;;14.80;76.89
33422;BME280;19763;55.798;37.782;2023-05-19T02:17:41;150927.75;;;14.49;74.17
33422;BME280;19763;55.798;37.782;2023-05-19T02:20:12;150912.31;;;14.43;73.50
33422;BME280;19763;55.798;37.782;2023-05-19T02:22:38;150868.59;;;14.25;72.89
33422;BME280;19763;55.798;37.782;2023-05-19T02:25:03;150882.75;;;14.31;72.74
33422;BME280;19763;55.798;37.782;2023-05-19T02:27:29;150899.44;;;14.38;73.11
33422;BME280;19763;55.798;37.782;2023-05-19T02:29:55;150912.31;;;14.43;73.14
33422;BME280;19763;55.798;37.782;2023-05-19T02:32:20;150884.03;;;14.31;72.08
33422;BME280;19763;55.798;37.782;2023-05-19T02:34:46;150854.47;;;14.20;72.85
33422;BME280;19763;55.798;37.782;2023-05-19T02:37:15;150866.03;;;14.24;71.71
33422;BME280;19763;55.798;37.782;2023-05-19T02:39:42;150812.03;;;14.03;70.42
33422;BME280;19763;55.798;37.782;2023-05-19T02:42:08;150813.28;;;14.03;70.46
33422;BME280;19763;55.798;37.782;2023-05-19T02:44:34;150833.88;;;14.11;70.65
33422;BME280;19763;55.798;37.782;2023-05-19T02:47:00;150823.59;;;14.07;71.20
33422;BME280;19763;55.798;37.782;2023-05-19T02:49:26;150799.16;;;13.97;70.69
33422;BME280;19763;55.798;37.782;2023-05-19T02:51:55;150750.28;;;13.78;70.26
33422;BME280;19763;55.798;37.782;2023-05-19T02:54:21;150764.41;;;13.84;69.37
33422;BME280;19763;55.798;37.782;2023-05-19T02:56:46;150773.44;;;13.87;70.36
33422;BME280;19763;55.798;37.782;2023-05-19T02:59:12;150767.00;;;13.85;71.31
33422;BME280;19763;55.798;37.782;2023-05-19T03:01:38;150776.03;;;13.88;70.52
33422;BME280;19763;55.798;37.782;2023-05-19T03:04:04;150786.31;;;13.92;69.45
33422;BME280;19763;55.798;37.782;2023-05-19T03:06:30;150778.56;;;13.89;69.88
33422;BME280;19763;55.798;37.782;2023-05-19T03:08:57;150751.59;;;13.78;69.42
33422;BME280;19763;55.798;37.782;2023-05-19T03:11:23;150778.56;;;13.89;69.44
33422;BME280;19763;55.798;37.782;2023-05-19T03:13:48;150776.03;;;13.88;68.86
33422;BME280;19763;55.798;37.782;2023-05-19T03:16:14;150763.16;;;13.83;69.53
33422;BME280;19763;55.798;37.782;2023-05-19T03:18:40;150723.31;;;13.67;69.63
33422;BME280;19763;55.798;37.782;2023-05-19T03:21:06;150725.91;;;13.68;69.92
33422;BME280;19763;55.798;37.782;2023-05-19T03:23:32;150722.00;;;13.67;69.04
33422;BME280;19763;55.798;37.782;2023-05-19T03:25:57;150725.91;;;13.68;68.65
33422;BME280;19763;55.798;37.782;2023-05-19T03:28:23;150756.72;;;13.80;69.78
33422;BME280;19763;55.798;37.782;2023-05-19T03:30:48;150741.31;;;13.74;69.65
33422;BME280;19763;55.798;37.782;2023-05-19T03:33:15;150698.88;;;13.57;71.09
33422;BME280;19763;55.798;37.782;2023-05-19T03:35:41;150678.31;;;13.49;70.42
33422;BME280;19763;55.798;37.782;2023-05-19T03:38:08;150653.88;;;13.39;70.88
33422;BME280;19763;55.798;37.782;2023-05-19T03:40:34;150711.75;;;13.62;70.83
33422;BME280;19763;55.798;37.782;2023-05-19T03:43:00;150714.28;;;13.63;71.38
33422;BME280;19763;55.798;37.782;2023-05-19T03:45:25;150662.91;;;13.43;72.39
33422;BME280;19763;55.798;37.782;2023-05-19T03:47:51;150693.75;;;13.55;72.55
33422;BME280;19763;55.798;37.782;2023-05-19T03:50:17;150718.16;;;13.65;71.84
33422;BME280;19763;55.798;37.782;2023-05-19T03:52:42;150691.19;;;13.54;71.99
33422;BME280;19763;55.798;37.782;2023-05-19T03:55:12;150716.88;;;13.64;72.06
33422;BME280;19763;55.798;37.782;2023-05-19T03:57:39;150715.63;;;13.64;72.34
33422;BME280;19763;55.798;37.782;2023-05-19T04:00:06;150692.44;;;13.55;73.52
33422;BME280;19763;55.798;37.782;2023-05-19T04:02:32;150693.75;;;13.55;72.27
33422;BME280;19763;55.798;37.782;2023-05-19T04:04:58;150673.19;;;13.47;73.46
33422;BME280;19763;55.798;37.782;2023-05-19T04:07:23;150698.88;;;13.57;73.57
33422;BME280;19763;55.798;37.782;2023-05-19T04:09:49;150704.00;;;13.59;73.86
33422;BME280;19763;55.798;37.782;2023-05-19T04:12:15;150687.31;;;13.53;74.81
33422;BME280;19763;55.798;37.782;2023-05-19T04:14:40;150698.88;;;13.57;74.83
33422;BME280;19763;55.798;37.782;2023-05-19T04:17:07;150680.91;;;13.50;75.39
33422;BME280;19763;55.798;37.782;2023-05-19T04:19:33;150657.72;;;13.41;75.19
33422;BME280;19763;55.798;37.782;2023-05-19T04:21:59;150677.03;;;13.49;75.17
33422;BME280;19763;55.798;37.782;2023-05-19T04:24:24;150691.19;;;13.54;75.55
33422;BME280;19763;55.798;37.782;2023-05-19T04:26:50;150677.03;;;13.49;76.39
33422;BME280;19763;55.798;37.782;2023-05-19T04:29:16;150671.88;;;13.46;75.98
33422;BME280;19763;55.798;37.782;2023-05-19T04:31:44;150670.59;;;13.46;76.75
33422;BME280;19763;55.798;37.782;2023-05-19T04:34:10;150648.75;;;13.37;76.67
33422;BME280;19763;55.798;37.782;2023-05-19T04:36:36;150668.03;;;13.45;76.66
33422;BME280;19763;55.798;37.782;2023-05-19T04:39:02;150680.91;;;13.50;76.43
33422;BME280;19763;55.798;37.782;2023-05-19T04:41:31;150619.19;;;13.25;76.36
33422;BME280;19763;55.798;37.782;2023-05-19T04:43:58;150669.34;;;13.45;75.62
33422;BME280;19763;55.798;37.782;2023-05-19T04:46:24;150651.34;;;13.38;77.34
33422;BME280;19763;55.798;37.782;2023-05-19T04:48:51;150665.50;;;13.44;76.94
33422;BME280;19763;55.798;37.782;2023-05-19T04:51:18;150657.72;;;13.41;77.50
33422;BME280;19763;55.798;37.782;2023-05-19T04:53:44;150662.91;;;13.43;77.24
33422;BME280;19763;55.798;37.782;2023-05-19T04:56:10;150674.47;;;13.48;77.68
33422;BME280;19763;55.798;37.782;2023-05-19T04:58:40;150689.88;;;13.54;77.50
33422;BME280;19763;55.798;37.782;2023-05-19T05:01:06;150665.50;;;13.44;78.55
33422;BME280;19763;55.798;37.782;2023-05-19T05:03:34;150686.00;;;13.52;77.81
33422;BME280;19763;55.798;37.782;2023-05-19T05:05:59;150675.72;;;13.48;78.94
33422;BME280;19763;55.798;37.782;2023-05-19T05:08:25;150706.59;;;13.60;78.27
33422;BME280;19763;55.798;37.782;2023-05-19T05:10:52;150671.88;;;13.46;78.21
33422;BME280;19763;55.798;37.782;2023-05-19T05:13:22;150646.19;;;13.36;78.83
33422;BME280;19763;55.798;37.782;2023-05-19T05:15:48;150684.75;;;13.52;78.86
33422;BME280;19763;55.798;37.782;2023-05-19T05:18:16;150670.59;;;13.46;79.51
33422;BME280;19763;55.798;37.782;2023-05-19T05:20:42;150632.00;;;13.30;80.07
33422;BME280;19763;55.798;37.782;2023-05-19T05:23:09;150656.47;;;13.40;80.44
33422;BME280;19763;55.798;37.782;2023-05-19T05:25:40;150590.91;;;13.14;80.34
33422;BME280;19763;55.798;37.782;2023-05-19T05:28:06;150562.63;;;13.03;80.39
33422;BME280;19763;55.798;37.782;2023-05-19T05:30:32;150590.91;;;13.14;80.22
33422;BME280;19763;55.798;37.782;2023-05-19T05:32:58;150607.56;;;13.21;80.56
33422;BME280;19763;55.798;37.782;2023-05-19T05:35:24;150648.75;;;13.37;80.54
33422;BME280;19763;55.798;37.782;2023-05-19T05:37:49;150659.06;;;13.41;80.63
33422;BME280;19763;55.798;37.782;2023-05-19T05:40:15;150682.16;;;13.51;81.52
33422;BME280;19763;55.798;37.782;2023-05-19T05:42:42;150684.75;;;13.52;79.55
33422;BME280;19763;55.798;37.782;2023-05-19T05:45:07;150666.75;;;13.44;80.15
33422;BME280;19763;55.798;37.782;2023-05-19T05:47:33;150691.19;;;13.54;80.60
33422;BME280;19763;55.798;37.782;2023-05-19T05:50:03;150644.91;;;13.36;79.95
33422;BME280;19763;55.798;37.782;2023-05-19T05:52:30;150655.19;;;13.40;80.41
33422;BME280;19763;55.798;37.782;2023-05-19T05:54:56;150630.72;;;13.30;80.63
33422;BME280;19763;55.798;37.782;2023-05-19T05:57:22;150624.28;;;13.27;80.21
33422;BME280;19763;55.798;37.782;2023-05-19T05:59:48;150674.47;;;13.48;80.32
33422;BME280;19763;55.798;37.782;2023-05-19T06:02:16;150628.13;;;13.29;80.77
33422;BME280;19763;55.798;37.782;2023-05-19T06:04:41;150678.31;;;13.49;80.19
33422;BME280;19763;55.798;37.782;2023-05-19T06:07:08;150680.91;;;13.50;80.51
33422;BME280;19763;55.798;37.782;2023-05-19T06:09:34;150668.03;;;13.45;80.12
33422;BME280;19763;55.798;37.782;2023-05-19T06:12:00;150669.34;;;13.45;80.80
33422;BME280;19763;55.798;37.782;2023-05-19T06:14:26;150698.88;;;13.57;80.48
33422;BME280;19763;55.798;37.782;2023-05-19T06:16:51;150711.75;;;13.62;80.76
33422;BME280;19763;55.798;37.782;2023-05-19T06:19:18;150683.47;;;13.51;80.56
33422;BME280;19763;55.798;37.782;2023-05-19T06:21:46;150707.84;;;13.61;80.23
33422;BME280;19763;55.798;37.782;2023-05-19T06:24:12;150692.44;;;13.55;80.79
33422;BME280;19763;55.798;37.782;2023-05-19T06:26:37;150732.28;;;13.71;80.35
33422;BME280;19763;55.798;37.782;2023-05-19T06:29:03;150758.03;;;13.81;80.41
33422;BME280;19763;55.798;37.782;2023-05-19T06:31:29;150734.88;;;13.72;79.67
33422;BME280;19763;55.798;37.782;2023-05-19T06:33:55;150722.00;;;13.67;78.73
33422;BME280;19763;55.798;37.782;2023-05-19T06:36:21;150764.41;;;13.84;78.56
33422;BME280;19763;55.798;37.782;2023-05-19T06:38:46;150732.28;;;13.71;79.32
33422;BME280;19763;55.798;37.782;2023-05-19T06:41:12;150705.31;;;13.60;78.68
33422;BME280;19763;55.798;37.782;2023-05-19T06:43:38;150738.72;;;13.73;79.82
33422;BME280;19763;55.798;37.782;2023-05-19T06:46:03;150773.44;;;13.87;79.32
33422;BME280;19763;55.798;37.782;2023-05-19T06:48:29;150783.72;;;13.91;79.94
33422;BME280;19763;55.798;37.782;2023-05-19T06:50:55;150805.59;;;14.00;79.05
33422;BME280;19763;55.798;37.782;2023-05-19T06:53:21;150804.31;;;14.00;78.37
33422;BME280;19763;55.798;37.782;2023-05-19T06:55:46;150828.69;;;14.09;78.64
33422;BME280;19763;55.798;37.782;2023-05-19T06:58:15;150823.59;;;14.07;77.54
33422;BME280;19763;55.798;37.782;2023-05-19T07:00:40;150868.59;;;14.25;77.71
33422;BME280;19763;55.798;37.782;2023-05-19T07:03:07;150921.28;;;14.46;76.73
33422;BME280;19763;55.798;37.782;2023-05-19T07:05:33;150899.44;;;14.38;75.69
33422;BME280;19763;55.798;37.782;2023-05-19T07:07:58;150929.06;;;14.49;75.33
33422;BME280;19763;55.798;37.782;2023-05-19T07:10:24;150902.03;;;14.39;75.52
33422;BME280;19763;55.798;37.782;2023-05-19T07:12:49;150948.34;;;14.57;74.52
33422;BME280;19763;55.798;37.782;2023-05-19T07:15:15;150966.38;;;14.64;74.15
33422;BME280;19763;55.798;37.782;2023-05-19T07:17:41;150965.13;;;14.64;73.28
33422;BME280;19763;55.798;37.782;2023-05-19T07:20:07;150976.69;;;14.69;73.46
33422;BME280;19763;55.798;37.782;2023-05-19T07:22:35;150998.53;;;14.77;73.16
33422;BME280;19763;55.798;37.782;2023-05-19T07:25:00;150984.38;;;14.72;72.52
33422;BME280;19763;55.798;37.782;2023-05-19T07:27:26;150966.38;;;14.64;73.92
33422;BME280;19763;55.798;37.782;2023-05-19T07:29:52;151002.41;;;14.79;73.18
33422;BME280;19763;55.798;37.782;2023-05-19T07:32:17;151002.41;;;14.79;73.07
33422;BME280;19763;55.798;37.782;2023-05-19T07:34:43;151017.88;;;14.85;72.66
33422;BME280;19763;55.798;37.782;2023-05-19T07:37:08;151035.88;;;14.92;71.30
33422;BME280;19763;55.798;37.782;2023-05-19T07:39:34;151057.75;;;15.01;71.08
33422;BME280;19763;55.798;37.782;2023-05-19T07:42:00;151074.44;;;15.08;70.41
33422;BME280;19763;55.798;37.782;2023-05-19T07:44:26;151057.75;;;15.01;70.67
33422;BME280;19763;55.798;37.782;2023-05-19T07:46:53;151089.91;;;15.14;70.36
33422;BME280;19763;55.798;37.782;2023-05-19T07:49:19;151102.75;;;15.19;70.03
33422;BME280;19763;55.798;37.782;2023-05-19T07:51:44;151095.03;;;15.16;68.48
33422;BME280;19763;55.798;37.782;2023-05-19T07:54:10;151079.63;;;15.10;66.66
33422;BME280;19763;55.798;37.782;2023-05-19T07:56:36;151113.06;;;15.23;67.33
33422;BME280;19763;55.798;37.782;2023-05-19T07:59:02;151093.75;;;15.15;65.50
33422;BME280;19763;55.798;37.782;2023-05-19T08:01:29;151190.28;;;15.54;66.34
33422;BME280;19763;55.798;37.782;2023-05-19T08:03:54;151180.00;;;15.50;65.33
33422;BME280;19763;55.798;37.782;2023-05-19T08:06:20;151190.28;;;15.54;64.75
33422;BME280;19763;55.798;37.782;2023-05-19T08:08:46;151168.41;;;15.45;64.53
33422;BME280;19763;55.798;37.782;2023-05-19T08:11:12;151218.59;;;15.65;64.22
33422;BME280;19763;55.798;37.782;2023-05-19T08:13:38;151209.56;;;15.62;62.94
33422;BME280;19763;55.798;37.782;2023-05-19T08:16:04;151283.03;;;15.91;63.51
33422;BME280;19763;55.798;37.782;2023-05-19T08:18:29;151276.59;;;15.88;61.75
33422;BME280;19763;55.798;37.782;2023-05-19T08:20:55;151311.34;;;16.02;62.56
33422;BME280;19763;55.798;37.782;2023-05-19T08:23:21;151352.59;;;16.19;61.13
33422;BME280;19763;55.798;37.782;2023-05-19T08:25:46;151268.88;;;15.85;58.31
33422;BME280;19763;55.798;37.782;2023-05-19T08:28:12;151389.91;;;16.34;58.18
33422;BME280;19763;55.798;37.782;2023-05-19T08:30:38;151383.47;;;16.31;55.51
33422;BME280;19763;55.798;37.782;2023-05-19T08:33:03;151378.34;;;16.29;55.49
33422;BME280;19763;55.798;37.782;2023-05-19T08:35:29;151397.63;;;16.37;55.19
33422;BME280;19763;55.798;37.782;2023-05-19T08:37:55;151424.69;;;16.48;52.61
33422;BME280;19763;55.798;37.782;2023-05-19T08:40:21;151472.34;;;16.67;52.50
33422;BME280;19763;55.798;37.782;2023-05-19T08:42:48;151471.06;;;16.66;51.36
33422;BME280;19763;55.798;37.782;2023-05-19T08:45:14;151442.72;;;16.55;48.59
33422;BME280;19763;55.798;37.782;2023-05-19T08:47:40;151460.75;;;16.62;49.08
33422;BME280;19763;55.798;37.782;2023-05-19T08:50:07;151504.53;;;16.80;49.71
33422;BME280;19763;55.798;37.782;2023-05-19T08:52:51;151431.16;;;16.50;49.28
33422;BME280;19763;55.798;37.782;2023-05-19T08:55:32;151526.50;;;16.88;50.28
33422;BME280;19763;55.798;37.782;2023-05-19T08:58:00;151558.69;;;17.01;48.22
33422;BME280;19763;55.798;37.782;2023-05-19T09:00:26;151571.59;;;17.06;48.72
33422;BME280;19763;55.798;37.782;2023-05-19T09:02:54;151558.69;;;17.01;48.63
33422;BME280;19763;55.798;37.782;2023-05-19T09:05:20;151660.53;;;17.42;49.56
33422;BME280;19763;55.798;37.782;2023-05-19T09:07:46;151699.22;;;17.57;48.51
33422;BME280;19763;55.798;37.782;2023-05-19T09:10:13;151685.03;;;17.52;47.09
33422;BME280;19763;55.798;37.782;2023-05-19T09:12:44;151634.75;;;17.32;46.18
33422;BME280;19763;55.798;37.782;2023-05-19T09:15:10;151713.38;;;17.63;47.26
33422;BME280;19763;55.798;37.782;2023-05-19T09:17:37;151744.31;;;17.75;47.02
33422;BME280;19763;55.798;37.782;2023-05-19T09:20:04;151687.56;;;17.53;45.20
33422;BME280;19763;55.798;37.782;2023-05-19T09:22:45;151746.88;;;17.76;46.90
33422;BME280;19763;55.798;37.782;2023-05-19T09:25:24;151772.66;;;17.87;45.59
33422;BME280;19763;55.798;37.782;2023-05-19T09:27:53;151755.94;;;17.80;44.80
33422;BME280;19763;55.798;37.782;2023-05-19T09:30:19;151670.84;;;17.46;44.91
33422;BME280;19763;55.798;37.782;2023-05-19T09:32:45;151722.38;;;17.67;46.04
33422;BME280;19763;55.798;37.782;2023-05-19T09:35:12;151749.47;;;17.77;45.73
33422;BME280;19763;55.798;37.782;2023-05-19T09:37:41;151767.53;;;17.85;46.00
33422;BME280;19763;55.798;37.782;2023-05-19T09:40:13;151784.34;;;17.91;45.56
33422;BME280;19763;55.798;37.782;2023-05-19T09:42:40;151712.06;;;17.63;43.63
33422;BME280;19763;55.798;37.782;2023-05-19T09:45:07;151748.16;;;17.77;44.15
33422;BME280;19763;55.798;37.782;2023-05-19T09:47:36;151790.75;;;17.94;44.96
33422;BME280;19763;55.798;37.782;2023-05-19T09:50:10;151793.34;;;17.95;45.04
33422;BME280;19763;55.798;37.782;2023-05-19T09:52:42;151784.34;;;17.91;43.65
33422;BME280;19763;55.798;37.782;2023-05-19T09:55:10;151808.81;;;18.01;44.03
33422;BME280;19763;55.798;37.782;2023-05-19T09:57:38;151762.34;;;17.83;43.31
33422;BME280;19763;55.798;37.782;2023-05-19T10:00:07;151807.53;;;18.01;43.95
33422;BME280;19763;55.798;37.782;2023-05-19T10:02:42;151798.53;;;17.97;43.70
33422;BME280;19763;55.798;37.782;2023-05-19T10:05:18;151841.03;;;18.14;43.12
33422;BME280;19763;55.798;37.782;2023-05-19T10:07:51;151808.81;;;18.01;43.78
33422;BME280;19763;55.798;37.782;2023-05-19T10:10:17;151772.66;;;17.87;43.26
33422;BME280;19763;55.798;37.782;2023-05-19T10:12:47;151802.41;;;17.99;43.17
33422;BME280;19763;55.798;37.782;2023-05-19T10:15:17;151846.22;;;18.16;44.09
33422;BME280;19763;55.798;37.782;2023-05-19T10:17:43;151785.63;;;17.92;44.96
33422;BME280;19763;55.798;37.782;2023-05-19T10:20:14;151806.28;;;18.00;42.09
33422;BME280;19763;55.798;37.782;2023-05-19T10:22:41;151792.09;;;17.94;41.83
33422;BME280;19763;55.798;37.782;2023-05-19T10:25:08;151842.38;;;18.15;41.58
33422;BME280;19763;55.798;37.782;2023-05-19T10:27:55;151792.09;;;17.94;41.30
33422;BME280;19763;55.798;37.782;2023-05-19T10:30:27;151857.81;;;18.21;42.61
33422;BME280;19763;55.798;37.782;2023-05-19T10:32:54;151906.84;;;18.40;41.99
33422;BME280;19763;55.798;37.782;2023-05-19T10:43:29;151892.66;;;18.35;40.42
33422;BME280;19763;55.798;37.782;2023-05-19T10:46:00;151873.28;;;18.27;41.15
33422;BME280;19763;55.798;37.782;2023-05-19T10:48:32;151861.69;;;18.22;40.58
33422;BME280;19763;55.798;37.782;2023-05-19T10:50:58;151837.19;;;18.13;40.25
33422;BME280;19763;55.798;37.782;2023-05-19T10:53:30;151848.81;;;18.17;41.17
33422;BME280;19763;55.798;37.782;2023-05-19T10:55:55;151859.16;;;18.21;41.79
33422;BME280;19763;55.798;37.782;2023-05-19T10:58:48;151866.88;;;18.24;40.42
33422;BME280;19763;55.798;37.782;2023-05-19T11:01:20;151904.25;;;18.39;41.68
33422;BME280;19763;55.798;37.782;2023-05-19T11:03:51;151910.72;;;18.42;41.28
33422;BME280;19763;55.798;37.782;2023-05-19T11:06:23;151892.66;;;18.35;41.23
33422;BME280;19763;55.798;37.782;2023-05-19T11:09:14;151901.66;;;18.38;40.22
33422;BME280;19763;55.798;37.782;2023-05-19T11:11:51;151859.16;;;18.21;40.28
33422;BME280;19763;55.798;37.782;2023-05-19T11:14:21;151865.56;;;18.24;40.55
33422;BME280;19763;55.798;37.782;2023-05-19T11:16:51;151841.03;;;18.14;40.47
33422;BME280;19763;55.798;37.782;2023-05-19T11:21:52;151924.91;;;18.48;41.42
33422;BME280;19763;55.798;37.782;2023-05-19T11:24:37;151936.50;;;18.52;42.30
33422;BME280;19763;55.798;37.782;2023-05-19T11:27:30;151901.66;;;18.38;40.99
33422;BME280;19763;55.798;37.782;2023-05-19T11:32:34;151906.84;;;18.40;39.84
33422;BME280;19763;55.798;37.782;2023-05-19T11:35:03;151913.31;;;18.43;38.89
33422;BME280;19763;55.798;37.782;2023-05-19T11:37:33;151873.28;;;18.27;40.17
33422;BME280;19763;55.798;37.782;2023-05-19T11:40:08;151901.66;;;18.38;39.84
33422;BME280;19763;55.798;37.782;2023-05-19T11:42:35;151913.31;;;18.43;40.30
33422;BME280;19763;55.798;37.782;2023-05-19T11:45:02;151904.25;;;18.39;40.82
33422;BME280;19763;55.798;37.782;2023-05-19T11:47:30;151864.28;;;18.23;39.23
33422;BME280;19763;55.798;37.782;2023-05-19T11:49:57;151852.69;;;18.19;38.45
33422;BME280;19763;55.798;37.782;2023-05-19T11:52:23;151857.81;;;18.21;37.92
33422;BME280;19763;55.798;37.782;2023-05-19T11:54:50;151829.44;;;18.09;37.93
33422;BME280;19763;55.798;37.782;2023-05-19T11:57:15;151844.97;;;18.16;37.60
33422;BME280;19763;55.798;37.782;2023-05-19T11:59:41;151851.38;;;18.18;37.89
33422;BME280;19763;55.798;37.782;2023-05-19T12:02:19;151883.63;;;18.31;38.08
33422;BME280;19763;55.798;37.782;2023-05-19T12:04:46;151883.63;;;18.31;37.20
33422;BME280;19763;55.798;37.782;2023-05-19T12:07:12;151883.63;;;18.31;37.31
33422;BME280;19763;55.798;37.782;2023-05-19T12:09:39;151872.00;;;18.26;38.02
33422;BME280;19763;55.798;37.782;2023-05-19T12:12:05;151829.44;;;18.09;37.54
33422;BME280;19763;55.798;37.782;2023-05-19T12:14:32;151852.69;;;18.19;37.02
33422;BME280;19763;55.798;37.782;2023-05-19T12:16:58;151897.78;;;18.37;38.22
33422;BME280;19763;55.798;37.782;2023-05-19T12:19:33;151881.06;;;18.30;38.05
33422;BME280;19763;55.798;37.782;2023-05-19T12:21:59;151913.31;;;18.43;37.32
33422;BME280;19763;55.798;37.782;2023-05-19T12:24:25;151935.22;;;18.52;37.26
33422;BME280;19763;55.798;37.782;2023-05-19T12:26:51;151919.78;;;18.45;36.60
33422;BME280;19763;55.798;37.782;2023-05-19T12:29:16;151888.78;;;18.33;37.91
33422;BME280;19763;55.798;37.782;2023-05-19T12:31:45;151906.84;;;18.40;38.10
33422;BME280;19763;55.798;37.782;2023-05-19T12:34:11;151879.75;;;18.29;36.76
33422;BME280;19763;55.798;37.782;2023-05-19T12:36:37;151896.53;;;18.36;37.87
33422;BME280;19763;55.798;37.782;2023-05-19T12:39:03;151883.63;;;18.31;38.08
33422;BME280;19763;55.798;37.782;2023-05-19T12:41:30;151851.38;;;18.18;38.51
33422;BME280;19763;55.798;37.782;2023-05-19T12:43:56;151879.75;;;18.29;37.69
33422;BME280;19763;55.798;37.782;2023-05-19T12:46:21;151897.78;;;18.37;38.55
33422;BME280;19763;55.798;37.782;2023-05-19T12:48:47;151882.34;;;18.31;38.44
33422;BME280;19763;55.798;37.782;2023-05-19T12:51:17;151863.00;;;18.23;37.73
33422;BME280;19763;55.798;37.782;2023-05-19T12:53:43;151892.66;;;18.35;38.00
33422;BME280;19763;55.798;37.782;2023-05-19T12:56:13;151886.19;;;18.32;38.76
33422;BME280;19763;55.798;37.782;2023-05-19T12:58:40;151918.44;;;18.45;38.82
33422;BME280;19763;55.798;37.782;2023-05-19T13:01:06;151886.19;;;18.32;37.08
33422;BME280;19763;55.798;37.782;2023-05-19T13:03:43;151864.28;;;18.23;37.73
33422;BME280;19763;55.798;37.782;2023-05-19T13:06:10;151887.47;;;18.33;38.45
33422;BME280;19763;55.798;37.782;2023-05-19T13:08:36;151924.91;;;18.48;38.50
33422;BME280;19763;55.798;37.782;2023-05-19T13:11:05;151899.13;;;18.37;37.91
33422;BME280;19763;55.798;37.782;2023-05-19T13:13:31;151917.16;;;18.44;37.94
33422;BME280;19763;55.798;37.782;2023-05-19T13:15:57;151875.88;;;18.28;36.98
33422;BME280;19763;55.798;37.782;2023-05-19T13:18:23;151892.66;;;18.35;37.93
33422;BME280;19763;55.798;37.782;2023-05-19T13:20:48;151914.59;;;18.43;37.84